^^
Saratoga-Weather Station Historical Data
Daily Summary for September 30, 2022 Units:  Metric    English   Both
Daily Weekly Monthly Yearly Custom
  High: Low: Average:
Temperature: 16.3 °C 3.9 °C 8.2 °C
Dew Point: 11.8 °C 3.3 °C 6.1 °C
Humidity: 97% 55% 88%
Wind Speed: 9.7km/h 0km/h 0.9km/h
Wind Gust: 11.3km/h - -
Wind- - South
Pressure: 1012.2 hPa 1006.8 hPa -
Precipitation: 0.2 mm    
Historical Graphs
 
 
Tabular Data for September 30, 2022
Time Temperature Dew Point Pressure Wind Wind Speed Wind Gust Humidity Rainfall Rate (Hourly) solar
00:01 5.9 °C 5.2 °C 1006.8 hPa Calm     95% 0.0 mm 0 W/m2
00:06 5.8 °C 5.1 °C 1006.8 hPa Calm     95% 0.0 mm 0 W/m2
00:11 5.8 °C 5.1 °C 1007.1 hPa Calm     95% 0.0 mm 0 W/m2
00:16 5.8 °C 5.1 °C 1007.1 hPa Calm     95% 0.0 mm 0 W/m2
00:21 5.8 °C 5.1 °C 1007.1 hPa Calm     95% 0.0 mm 0 W/m2
00:26 5.8 °C 5.1 °C 1007.1 hPa Calm     95% 0.0 mm 0 W/m2
00:31 5.8 °C 5.1 °C 1007.1 hPa Calm     95% 0.0 mm 0 W/m2
00:36 5.7 °C 5 °C 1007.1 hPa Calm     95% 0.0 mm 0 W/m2
00:41 5.7 °C 5 °C 1007.1 hPa Calm     95% 0.0 mm 0 W/m2
00:46 5.7 °C 5 °C 1007.5 hPa Calm     95% 0.0 mm 0 W/m2
00:51 5.7 °C 5 °C 1007.5 hPa Calm     95% 0.0 mm 0 W/m2
00:56 5.7 °C 5 °C 1007.1 hPa Calm     95% 0.0 mm 0 W/m2
01:01 5.6 °C 4.9 °C 1007.1 hPa Calm     95% 0.0 mm 0 W/m2
01:06 5.6 °C 4.9 °C 1007.1 hPa Calm     95% 0.0 mm 0 W/m2
01:11 5.6 °C 4.9 °C 1007.1 hPa Calm     95% 0.0 mm 0 W/m2
01:16 5.5 °C 4.8 °C 1007.1 hPa Calm     95% 0.0 mm 0 W/m2
01:21 5.4 °C 4.7 °C 1007.1 hPa Calm     95% 0.0 mm 0 W/m2
01:26 5.4 °C 4.7 °C 1007.1 hPa Calm     95% 0.0 mm 0 W/m2
01:31 5.3 °C 4.6 °C 1007.1 hPa Calm     95% 0.0 mm 0 W/m2
01:36 5.3 °C 4.6 °C 1007.1 hPa Calm     95% 0.0 mm 0 W/m2
01:41 5.2 °C 4.5 °C 1007.5 hPa Calm     95% 0.0 mm 0 W/m2
01:46 5.2 °C 4.6 °C 1007.5 hPa Calm     96% 0.0 mm 0 W/m2
01:51 5.2 °C 4.6 °C 1007.5 hPa Calm     96% 0.0 mm 0 W/m2
01:56 5.1 °C 4.4 °C 1007.5 hPa Calm     95% 0.0 mm 0 W/m2
02:01 5 °C 4.3 °C 1007.5 hPa Calm     95% 0.0 mm 0 W/m2
02:06 5 °C 4.3 °C 1007.5 hPa Calm     95% 0.0 mm 0 W/m2
02:11 4.9 °C 4.2 °C 1007.5 hPa Calm     95% 0.0 mm 0 W/m2
02:16 4.9 °C 4.2 °C 1007.5 hPa Calm     95% 0.0 mm 0 W/m2
02:21 4.9 °C 4.3 °C 1007.5 hPa Calm     96% 0.0 mm 0 W/m2
02:26 4.9 °C 4.3 °C 1007.5 hPa Calm     96% 0.0 mm 0 W/m2
02:31 4.8 °C 4.2 °C 1007.5 hPa Calm     96% 0.0 mm 0 W/m2
02:36 4.8 °C 4.2 °C 1007.5 hPa Calm     96% 0.0 mm 0 W/m2
02:41 4.7 °C 4 °C 1007.5 hPa Calm     95% 0.0 mm 0 W/m2
02:46 4.7 °C 4 °C 1007.8 hPa Calm     95% 0.0 mm 0 W/m2
02:51 4.6 °C 3.9 °C 1007.5 hPa Calm     95% 0.0 mm 0 W/m2
02:56 4.6 °C 4 °C 1007.8 hPa Calm     96% 0.0 mm 0 W/m2
03:01 4.6 °C 4 °C 1007.8 hPa Calm     96% 0.0 mm 0 W/m2
03:06 4.6 °C 4 °C 1007.8 hPa Calm     96% 0.0 mm 0 W/m2
03:11 4.5 °C 3.9 °C 1007.8 hPa Calm     96% 0.0 mm 0 W/m2
03:16 4.4 °C 3.7 °C 1008.1 hPa Calm     95% 0.0 mm 0 W/m2
03:21 4.4 °C 3.8 °C 1008.1 hPa Calm     96% 0.0 mm 0 W/m2
03:26 4.4 °C 3.8 °C 1008.1 hPa Calm     96% 0.0 mm 0 W/m2
03:31 4.3 °C 3.7 °C 1008.1 hPa Calm     96% 0.0 mm 0 W/m2
03:36 4.3 °C 3.7 °C 1008.1 hPa Calm     96% 0.0 mm 0 W/m2
03:41 4.3 °C 3.7 °C 1008.1 hPa Calm     96% 0.0 mm 0 W/m2
03:46 4.2 °C 3.6 °C 1008.1 hPa South 1.4 km/h 3.2 km/h 96% 0.0 mm 0 W/m2
03:51 4.2 °C 3.6 °C 1008.1 hPa South 1.4 km/h 3.2 km/h 96% 0.0 mm 0 W/m2
03:56 4.2 °C 3.6 °C 1008.1 hPa Calm     96% 0.0 mm 0 W/m2
04:01 4.2 °C 3.6 °C 1008.1 hPa Calm   3.2 km/h 96% 0.0 mm 0 W/m2
04:06 4.2 °C 3.6 °C 1008.1 hPa Calm     96% 0.0 mm 0 W/m2
04:11 4.2 °C 3.6 °C 1008.1 hPa South 1.4 km/h 1.6 km/h 96% 0.0 mm 0 W/m2
04:16 4.3 °C 3.7 °C 1008.1 hPa Calm   1.6 km/h 96% 0.0 mm 0 W/m2
04:21 4.3 °C 3.7 °C 1008.5 hPa Calm     96% 0.2 mm 0 W/m2
04:26 4.3 °C 3.7 °C 1008.5 hPa Calm   3.2 km/h 96% 0.2 mm 0 W/m2
04:31 4.4 °C 3.8 °C 1008.5 hPa SSW 1.4 km/h 1.6 km/h 96% 0.2 mm 0 W/m2
04:37 4.6 °C 4 °C 1008.5 hPa Calm     96% 0.2 mm 0 W/m2
04:42 4.6 °C 4 °C 1008.5 hPa Calm   1.6 km/h 96% 0.2 mm 0 W/m2
04:47 4.7 °C 4.1 °C 1008.5 hPa SSW 1.4 km/h 3.2 km/h 96% 0.2 mm 0 W/m2
04:52 4.7 °C 4.1 °C 1008.5 hPa Calm     96% 0.2 mm 0 W/m2
04:57 4.6 °C 4 °C 1008.5 hPa SSW 1.4 km/h 3.2 km/h 96% 0.2 mm 0 W/m2
05:02 4.6 °C 4 °C 1008.5 hPa Calm   1.6 km/h 96% 0.2 mm 0 W/m2
05:07 4.5 °C 3.9 °C 1008.1 hPa Calm   1.6 km/h 96% 0.2 mm 0 W/m2
05:12 4.4 °C 3.8 °C 1008.1 hPa Calm     96% 0.2 mm 0 W/m2
05:17 4.4 °C 3.8 °C 1008.5 hPa Calm     96% 0.2 mm 0 W/m2
05:22 4.3 °C 3.7 °C 1008.5 hPa Calm     96% 0.0 mm 0 W/m2
05:27 4.3 °C 3.7 °C 1008.5 hPa Calm     96% 0.0 mm 0 W/m2
05:32 4.2 °C 3.6 °C 1008.5 hPa Calm     96% 0.0 mm 0 W/m2
05:37 4.2 °C 3.6 °C 1008.5 hPa Calm     96% 0.0 mm 0 W/m2
05:42 4.1 °C 3.5 °C 1008.5 hPa Calm     96% 0.0 mm 0 W/m2
05:47 4 °C 3.4 °C 1008.5 hPa Calm     96% 0.0 mm 0 W/m2
05:52 3.9 °C 3.3 °C 1008.5 hPa Calm     96% 0.0 mm 0 W/m2
05:57 3.9 °C 3.3 °C 1008.5 hPa Calm     96% 0.0 mm 0 W/m2
06:02 3.9 °C 3.3 °C 1008.5 hPa Calm     96% 0.0 mm 0 W/m2
06:07 3.9 °C 3.3 °C 1008.8 hPa Calm     96% 0.0 mm 0 W/m2
06:12 3.9 °C 3.3 °C 1008.8 hPa SSW 3.2 km/h 3.2 km/h 96% 0.0 mm 0 W/m2
06:17 4 °C 3.4 °C 1008.8 hPa SSW 1.4 km/h 1.6 km/h 96% 0.0 mm 0 W/m2
06:22 4 °C 3.4 °C 1008.8 hPa SSW 1.4 km/h 1.6 km/h 96% 0.0 mm 0 W/m2
06:27 4 °C 3.4 °C 1008.8 hPa Calm     96% 0.0 mm 0 W/m2
06:32 3.9 °C 3.3 °C 1009.1 hPa Calm     96% 0.0 mm 0 W/m2
06:37 3.9 °C 3.3 °C 1009.1 hPa Calm     96% 0.0 mm 0 W/m2
06:42 3.9 °C 3.3 °C 1009.1 hPa Calm   1.6 km/h 96% 0.0 mm 0 W/m2
06:47 3.9 °C 3.3 °C 1009.1 hPa Calm     96% 0.0 mm 0 W/m2
06:52 3.9 °C 3.3 °C 1009.1 hPa Calm     96% 0.0 mm 0 W/m2
06:57 3.9 °C 3.3 °C 1009.1 hPa Calm     96% 0.0 mm 0 W/m2
07:02 4 °C 3.4 °C 1009.1 hPa Calm     96% 0.0 mm 0 W/m2
07:07 4 °C 3.4 °C 1009.5 hPa Calm     96% 0.0 mm 0 W/m2
07:12 4 °C 3.4 °C 1009.5 hPa Calm     96% 0.0 mm 0 W/m2
07:17 3.9 °C 3.3 °C 1009.5 hPa Calm     96% 0.0 mm 0 W/m2
07:22 3.9 °C 3.3 °C 1009.5 hPa Calm     96% 0.0 mm 0 W/m2
07:27 3.9 °C 3.3 °C 1009.5 hPa Calm     96% 0.0 mm 0 W/m2
07:32 4 °C 3.4 °C 1009.5 hPa Calm     96% 0.0 mm 0 W/m2
07:37 4 °C 3.4 °C 1009.8 hPa Calm     96% 0.0 mm 0 W/m2
07:42 4.1 °C 3.5 °C 1009.8 hPa Calm     96% 0.0 mm 0 W/m2
07:47 4.1 °C 3.5 °C 1009.8 hPa Calm     96% 0.0 mm 5 W/m2
07:52 4.1 °C 3.5 °C 1010.2 hPa Calm     96% 0.0 mm 7 W/m2
07:57 4.1 °C 3.5 °C 1010.2 hPa Calm     96% 0.0 mm 11 W/m2
08:02 4.1 °C 3.5 °C 1010.2 hPa Calm     96% 0.0 mm 12 W/m2
08:07 4.1 °C 3.5 °C 1010.2 hPa Calm     96% 0.0 mm 18 W/m2
08:12 4.2 °C 3.6 °C 1010.5 hPa Calm     96% 0.0 mm 19 W/m2
08:17 4.2 °C 3.6 °C 1010.5 hPa Calm     96% 0.0 mm 25 W/m2
08:22 4.2 °C 3.6 °C 1010.5 hPa Calm     96% 0.0 mm 30 W/m2
08:27 4.3 °C 3.7 °C 1010.5 hPa Calm   1.6 km/h 96% 0.0 mm 28 W/m2
08:32 4.3 °C 3.7 °C 1010.5 hPa Calm     96% 0.0 mm 28 W/m2
08:37 4.3 °C 3.7 °C 1010.8 hPa Calm     96% 0.0 mm 33 W/m2
08:42 4.2 °C 3.6 °C 1010.8 hPa Calm     96% 0.0 mm 37 W/m2
08:47 4.3 °C 3.7 °C 1010.8 hPa Calm     96% 0.0 mm 46 W/m2
08:52 4.3 °C 3.7 °C 1010.8 hPa Calm     96% 0.0 mm 58 W/m2
08:57 4.3 °C 3.9 °C 1010.8 hPa Calm     97% 0.0 mm 60 W/m2
09:02 4.4 °C 4 °C 1010.8 hPa Calm     97% 0.0 mm 63 W/m2
09:07 4.5 °C 4.1 °C 1010.8 hPa Calm   1.6 km/h 97% 0.0 mm 70 W/m2
09:12 4.6 °C 4.2 °C 1010.8 hPa Calm   1.6 km/h 97% 0.0 mm 77 W/m2
09:17 4.7 °C 4.1 °C 1010.8 hPa Calm   1.6 km/h 96% 0.0 mm 79 W/m2
09:22 4.7 °C 4.1 °C 1010.8 hPa ESE 1.4 km/h 4.8 km/h 96% 0.0 mm 81 W/m2
09:27 4.6 °C 4 °C 1010.8 hPa Calm   3.2 km/h 96% 0.0 mm 88 W/m2
09:32 4.7 °C 4.1 °C 1011.2 hPa ENE 1.4 km/h 1.6 km/h 96% 0.0 mm 90 W/m2
09:37 4.6 °C 4 °C 1011.2 hPa NNW 1.4 km/h 3.2 km/h 96% 0.0 mm 90 W/m2
09:42 4.6 °C 4 °C 1011.2 hPa Calm   1.6 km/h 96% 0.0 mm 93 W/m2
09:47 4.7 °C 4.1 °C 1011.2 hPa Calm   3.2 km/h 96% 0.0 mm 95 W/m2
09:52 4.7 °C 4.3 °C 1011.5 hPa Calm   1.6 km/h 97% 0.0 mm 100 W/m2
09:57 4.8 °C 4.4 °C 1011.2 hPa ESE 1.4 km/h 4.8 km/h 97% 0.0 mm 100 W/m2
10:02 4.9 °C 4.5 °C 1011.2 hPa ESE 1.4 km/h 3.2 km/h 97% 0.0 mm 109 W/m2
10:07 5 °C 4.6 °C 1011.5 hPa ENE 1.4 km/h 4.8 km/h 97% 0.0 mm 127 W/m2
10:12 5 °C 4.6 °C 1011.5 hPa Calm   3.2 km/h 97% 0.0 mm 123 W/m2
10:17 5.1 °C 4.7 °C 1011.5 hPa Calm     97% 0.0 mm 127 W/m2
10:22 5.1 °C 4.7 °C 1011.9 hPa Calm   1.6 km/h 97% 0.0 mm 132 W/m2
10:27 5.2 °C 4.8 °C 1011.9 hPa Calm   1.6 km/h 97% 0.0 mm 142 W/m2
10:32 5.3 °C 4.9 °C 1011.5 hPa Calm     97% 0.0 mm 141 W/m2
10:37 5.4 °C 5 °C 1011.9 hPa Calm   1.6 km/h 97% 0.0 mm 144 W/m2
10:42 5.6 °C 5.2 °C 1011.9 hPa Calm   1.6 km/h 97% 0.0 mm 137 W/m2
10:47 5.7 °C 5.3 °C 1011.9 hPa Calm   1.6 km/h 97% 0.0 mm 160 W/m2
10:52 5.8 °C 5.4 °C 1011.9 hPa East 1.4 km/h 4.8 km/h 97% 0.0 mm 171 W/m2
10:57 5.9 °C 5.5 °C 1011.9 hPa East 3.2 km/h 4.8 km/h 97% 0.0 mm 186 W/m2
11:02 5.9 °C 5.5 °C 1011.9 hPa ESE 3.2 km/h 4.8 km/h 97% 0.0 mm 192 W/m2
11:07 6.1 °C 5.7 °C 1011.9 hPa NE 1.4 km/h 6.4 km/h 97% 0.0 mm 185 W/m2
11:12 6.1 °C 5.7 °C 1011.9 hPa NE 3.2 km/h 3.2 km/h 97% 0.0 mm 178 W/m2
11:17 6.2 °C 5.8 °C 1011.9 hPa NE 3.2 km/h 4.8 km/h 97% 0.0 mm 188 W/m2
11:22 6.4 °C 6 °C 1011.9 hPa ENE 1.4 km/h 4.8 km/h 97% 0.0 mm 172 W/m2
11:27 6.5 °C 6.1 °C 1011.9 hPa NE 4.7 km/h 4.8 km/h 97% 0.0 mm 190 W/m2
11:32 6.6 °C 6.2 °C 1011.9 hPa ENE 3.2 km/h 6.4 km/h 97% 0.0 mm 185 W/m2
11:37 6.7 °C 6.3 °C 1011.9 hPa East 3.2 km/h 3.2 km/h 97% 0.0 mm 163 W/m2
11:42 6.8 °C 6.4 °C 1011.9 hPa ENE 1.4 km/h 6.4 km/h 97% 0.0 mm 192 W/m2
11:47 6.8 °C 6.4 °C 1011.9 hPa ESE 1.4 km/h 6.4 km/h 97% 0.0 mm 216 W/m2
11:52 6.9 °C 6.5 °C 1011.9 hPa SE 1.4 km/h 4.8 km/h 97% 0.0 mm 236 W/m2
11:57 7.1 °C 6.7 °C 1011.9 hPa ENE 1.4 km/h 6.4 km/h 97% 0.0 mm 243 W/m2
12:02 7.3 °C 6.9 °C 1011.9 hPa ESE 1.4 km/h 3.2 km/h 97% 0.0 mm 244 W/m2
12:07 7.4 °C 7 °C 1011.9 hPa East 1.4 km/h 4.8 km/h 97% 0.0 mm 250 W/m2
12:12 7.6 °C 7.2 °C 1011.9 hPa SE 4.7 km/h 8 km/h 97% 0.0 mm 213 W/m2
12:17 7.7 °C 7.3 °C 1011.9 hPa ENE 3.2 km/h 6.4 km/h 97% 0.0 mm 318 W/m2
12:22 7.8 °C 7.4 °C 1011.9 hPa East 3.2 km/h 6.4 km/h 97% 0.0 mm 265 W/m2
12:27 7.9 °C 7.5 °C 1011.9 hPa East 6.4 km/h 6.4 km/h 97% 0.0 mm 213 W/m2
12:32 8 °C 7.6 °C 1011.9 hPa ESE 4.7 km/h 4.8 km/h 97% 0.0 mm 234 W/m2
12:37 8.1 °C 7.7 °C 1011.9 hPa East 6.4 km/h 6.4 km/h 97% 0.0 mm 236 W/m2
12:42 8.2 °C 7.8 °C 1011.9 hPa ESE 3.2 km/h 4.8 km/h 97% 0.0 mm 271 W/m2
12:47 8.3 °C 7.9 °C 1011.9 hPa ENE 4.7 km/h 6.4 km/h 97% 0.0 mm 271 W/m2
12:52 8.3 °C 7.9 °C 1011.9 hPa Calm   4.8 km/h 97% 0.0 mm 401 W/m2
12:57 8.4 °C 8 °C 1011.9 hPa ENE 1.4 km/h 3.2 km/h 97% 0.0 mm 274 W/m2
13:02 8.8 °C 8.3 °C 1011.9 hPa NE 4.7 km/h 4.8 km/h 97% 0.0 mm 668 W/m2
13:07 9.1 °C 8.6 °C 1011.9 hPa NE 3.2 km/h 4.8 km/h 97% 0.0 mm 591 W/m2
13:12 9.4 °C 8.9 °C 1011.9 hPa ENE 1.4 km/h 3.2 km/h 97% 0.0 mm 582 W/m2
13:17 9.8 °C 9.3 °C 1011.9 hPa East 1.4 km/h 6.4 km/h 97% 0.0 mm 589 W/m2
13:22 10.1 °C 9.6 °C 1011.9 hPa Calm   3.2 km/h 97% 0.0 mm 580 W/m2
13:27 10.3 °C 9.8 °C 1011.9 hPa NE 3.2 km/h 6.4 km/h 97% 0.0 mm 599 W/m2
13:32 10.6 °C 10.1 °C 1011.9 hPa Calm   4.8 km/h 97% 0.0 mm 606 W/m2
13:37 10.9 °C 10.4 °C 1011.9 hPa East 3.2 km/h 4.8 km/h 97% 0.0 mm 603 W/m2
13:42 11.2 °C 10.7 °C 1011.9 hPa East 4.7 km/h 4.8 km/h 97% 0.0 mm 608 W/m2
13:47 11.4 °C 10.9 °C 1011.9 hPa ESE 4.7 km/h 4.8 km/h 97% 0.0 mm 624 W/m2
13:52 11.8 °C 11.3 °C 1011.9 hPa ENE 1.4 km/h 6.4 km/h 97% 0.0 mm 624 W/m2
13:57 12.2 °C 11.7 °C 1011.9 hPa NE 1.4 km/h 4.8 km/h 97% 0.0 mm 622 W/m2
14:02 12.4 °C 11.8 °C 1011.9 hPa East 1.4 km/h 3.2 km/h 96% 0.0 mm 564 W/m2
14:07 12.8 °C 11.5 °C 1011.9 hPa ENE 3.2 km/h 4.8 km/h 92% 0.0 mm 69 W/m2
14:12 13.2 °C 11.3 °C 1011.9 hPa NE 6.4 km/h 8 km/h 88% 0.0 mm 67 W/m2
14:17 13.4 °C 10.8 °C 1011.9 hPa ENE 1.4 km/h 3.2 km/h 84% 0.0 mm 53 W/m2
14:22 13.6 °C 10.9 °C 1011.9 hPa Calm   3.2 km/h 84% 0.0 mm 46 W/m2
14:27 13.5 °C 9.5 °C 1011.9 hPa Calm   4.8 km/h 77% 0.0 mm 47 W/m2
14:32 13.5 °C 8.6 °C 1011.9 hPa WNW 3.2 km/h 9.7 km/h 72% 0.0 mm 44 W/m2
14:37 13.7 °C 8.7 °C 1011.9 hPa WSW 4.7 km/h 6.4 km/h 72% 0.0 mm 40 W/m2
14:42 13.9 °C 8.7 °C 1011.9 hPa WNW 1.4 km/h 3.2 km/h 71% 0.0 mm 40 W/m2
14:47 14.1 °C 8.7 °C 1011.5 hPa West 6.4 km/h 8 km/h 70% 0.0 mm 39 W/m2
14:52 14.2 °C 7.9 °C 1011.5 hPa WSW 4.7 km/h 6.4 km/h 66% 0.0 mm 209 W/m2
14:57 14.4 °C 9.2 °C 1011.5 hPa Calm   1.6 km/h 71% 0.0 mm 207 W/m2
15:02 14.5 °C 8.4 °C 1011.5 hPa SE 1.4 km/h 4.8 km/h 67% 0.0 mm 554 W/m2
15:07 14.8 °C 7.8 °C 1011.5 hPa NW 6.4 km/h 8 km/h 63% 0.0 mm 510 W/m2
15:12 14.9 °C 8.4 °C 1011.5 hPa SSW 1.4 km/h 3.2 km/h 65% 0.0 mm 494 W/m2
15:17 15.1 °C 7.4 °C 1011.5 hPa Calm   6.4 km/h 60% 0.0 mm 512 W/m2
15:22 15.2 °C 7.2 °C 1011.5 hPa SW 4.7 km/h 6.4 km/h 59% 0.0 mm 555 W/m2
15:28 15.3 °C 7.8 °C 1011.5 hPa Calm   4.8 km/h 61% 0.0 mm 555 W/m2
15:33 15.5 °C 8.2 °C 1011.5 hPa NW 1.4 km/h 3.2 km/h 62% 0.0 mm 543 W/m2
15:38 15.7 °C 9.1 °C 1011.5 hPa Calm   3.2 km/h 65% 0.0 mm 543 W/m2
15:43 15.8 °C 8.5 °C 1011.5 hPa NNW 1.4 km/h 6.4 km/h 62% 0.0 mm 538 W/m2
15:48 15.9 °C 8.1 °C 1011.5 hPa WNW 1.4 km/h 11.3 km/h 60% 0.0 mm 527 W/m2
15:53 15.9 °C 7.9 °C 1011.5 hPa NE 4.7 km/h 4.8 km/h 59% 0.0 mm 515 W/m2
15:58 15.9 °C 8.6 °C 1011.5 hPa WNW 3.2 km/h 11.3 km/h 62% 0.0 mm 499 W/m2
16:03 15.8 °C 8.8 °C 1011.5 hPa Calm   4.8 km/h 63% 0.0 mm 485 W/m2
16:08 15.9 °C 8.1 °C 1011.2 hPa WSW 4.7 km/h 8 km/h 60% 0.0 mm 475 W/m2
16:13 16.1 °C 8.6 °C 1011.2 hPa East 3.2 km/h 3.2 km/h 61% 0.0 mm 466 W/m2
16:18 16.1 °C 7.3 °C 1011.2 hPa NNW 1.4 km/h 6.4 km/h 56% 0.0 mm 455 W/m2
16:23 16.1 °C 7.6 °C 1011.2 hPa WSW 3.2 km/h 4.8 km/h 57% 0.0 mm 443 W/m2
16:28 16.1 °C 7.3 °C 1011.2 hPa NW 1.4 km/h 6.4 km/h 56% 0.0 mm 434 W/m2
16:33 16.1 °C 7.3 °C 1011.2 hPa WNW 9.7 km/h 9.7 km/h 56% 0.0 mm 420 W/m2
16:38 16.1 °C 7.6 °C 1011.2 hPa West 3.2 km/h 6.4 km/h 57% 0.0 mm 408 W/m2
16:43 16.2 °C 7.7 °C 1011.2 hPa WNW 4.7 km/h 4.8 km/h 57% 0.0 mm 397 W/m2
16:48 16.2 °C 7.1 °C 1011.2 hPa WSW 3.2 km/h 6.4 km/h 55% 0.0 mm 387 W/m2
16:53 16.3 °C 7.2 °C 1010.8 hPa West 1.4 km/h 1.6 km/h 55% 0.0 mm 373 W/m2
16:58 16.3 °C 7.2 °C 1010.8 hPa NW 1.4 km/h 9.7 km/h 55% 0.0 mm 360 W/m2
17:03 16.3 °C 7.5 °C 1010.8 hPa West 1.4 km/h 6.4 km/h 56% 0.0 mm 350 W/m2
17:08 16.3 °C 8 °C 1010.8 hPa Calm   9.7 km/h 58% 0.0 mm 334 W/m2
17:13 16.2 °C 7.7 °C 1010.8 hPa NW 1.4 km/h 3.2 km/h 57% 0.0 mm 322 W/m2
17:18 16.3 °C 8.3 °C 1010.8 hPa East 3.2 km/h 6.4 km/h 59% 0.0 mm 278 W/m2
17:23 16.3 °C 8.5 °C 1010.8 hPa WNW 1.4 km/h 3.2 km/h 60% 0.0 mm 199 W/m2
17:28 16.1 °C 7.8 °C 1010.8 hPa Calm   1.6 km/h 58% 0.0 mm 193 W/m2
17:33 16.1 °C 7.8 °C 1010.8 hPa Calm   3.2 km/h 58% 0.0 mm 250 W/m2
17:38 16 °C 7.7 °C 1011.2 hPa SE 1.4 km/h 6.4 km/h 58% 0.0 mm 267 W/m2
17:43 16.1 °C 9.5 °C 1011.2 hPa Calm   1.6 km/h 65% 0.0 mm 241 W/m2
17:48 15.9 °C 8.6 °C 1010.8 hPa Calm   6.4 km/h 62% 0.0 mm 221 W/m2
17:53 15.7 °C 9.1 °C 1011.2 hPa SSW 1.4 km/h 3.2 km/h 65% 0.0 mm 192 W/m2
17:58 15.8 °C 9.9 °C 1011.2 hPa Calm     68% 0.0 mm 172 W/m2
18:03 15.7 °C 9.6 °C 1011.2 hPa Calm   1.6 km/h 67% 0.0 mm 146 W/m2
18:08 15.4 °C 8.9 °C 1011.2 hPa Calm   1.6 km/h 65% 0.0 mm 28 W/m2
18:13 15.1 °C 9.5 °C 1011.2 hPa SSW 1.4 km/h 1.6 km/h 69% 0.0 mm 23 W/m2
18:18 14.7 °C 9.3 °C 1011.2 hPa SSW 1.4 km/h 3.2 km/h 70% 0.0 mm 21 W/m2
18:23 14.2 °C 8.2 °C 1011.2 hPa NW 1.4 km/h 4.8 km/h 67% 0.0 mm 23 W/m2
18:28 14 °C 9 °C 1011.5 hPa Calm   1.6 km/h 72% 0.0 mm 23 W/m2
18:33 13.8 °C 9 °C 1011.5 hPa Calm   4.8 km/h 73% 0.0 mm 23 W/m2
18:38 13.5 °C 9 °C 1011.5 hPa WNW 1.4 km/h 1.6 km/h 74% 0.0 mm 18 W/m2
18:43 13.2 °C 8.9 °C 1011.5 hPa WNW 1.4 km/h 3.2 km/h 75% 0.0 mm 14 W/m2
18:48 12.9 °C 8.8 °C 1011.5 hPa Calm   1.6 km/h 76% 0.0 mm 12 W/m2
18:53 12.7 °C 8.8 °C 1011.9 hPa WNW 1.4 km/h 1.6 km/h 77% 0.0 mm 11 W/m2
18:58 12.3 °C 8.6 °C 1011.9 hPa Calm   1.6 km/h 78% 0.0 mm 7 W/m2
19:03 12.1 °C 8.4 °C 1011.5 hPa WNW 1.4 km/h 1.6 km/h 78% 0.0 mm 5 W/m2
19:08 11.7 °C 8.2 °C 1011.9 hPa WNW 1.4 km/h 1.6 km/h 79% 0.0 mm 0 W/m2
19:13 11.5 °C 8.2 °C 1011.5 hPa WNW 1.4 km/h 1.6 km/h 80% 0.0 mm 0 W/m2
19:18 11.3 °C 8.2 °C 1011.5 hPa Calm   1.6 km/h 81% 0.0 mm 0 W/m2
19:23 11.2 °C 8.1 °C 1011.5 hPa Calm   1.6 km/h 81% 0.0 mm 0 W/m2
19:28 11 °C 8 °C 1011.5 hPa WNW 1.4 km/h 1.6 km/h 82% 0.0 mm 0 W/m2
19:33 10.8 °C 8 °C 1011.5 hPa Calm     83% 0.0 mm 0 W/m2
19:38 10.7 °C 7.9 °C 1011.5 hPa Calm   1.6 km/h 83% 0.0 mm 0 W/m2
19:43 10.5 °C 7.7 °C 1011.9 hPa Calm   3.2 km/h 83% 0.0 mm 0 W/m2
19:48 10.4 °C 7.8 °C 1011.9 hPa WNW 1.4 km/h 1.6 km/h 84% 0.0 mm 0 W/m2
19:53 10.3 °C 7.9 °C 1011.5 hPa Calm   1.6 km/h 85% 0.0 mm 0 W/m2
19:58 10.3 °C 7.9 °C 1011.9 hPa Calm   1.6 km/h 85% 0.0 mm 0 W/m2
20:03 10.3 °C 7.9 °C 1011.9 hPa WNW 1.4 km/h 1.6 km/h 85% 0.0 mm 0 W/m2
20:08 10.2 °C 7.8 °C 1011.9 hPa WNW 1.4 km/h 1.6 km/h 85% 0.0 mm 0 W/m2
20:13 10.1 °C 7.7 °C 1011.9 hPa Calm     85% 0.0 mm 0 W/m2
20:18 9.9 °C 7.5 °C 1011.9 hPa Calm     85% 0.0 mm 0 W/m2
20:23 9.8 °C 7.4 °C 1011.9 hPa Calm     85% 0.0 mm 0 W/m2
20:28 9.7 °C 7.5 °C 1011.9 hPa Calm     86% 0.0 mm 0 W/m2
20:33 9.6 °C 7.4 °C 1011.9 hPa Calm     86% 0.0 mm 0 W/m2
20:38 9.4 °C 7.2 °C 1011.9 hPa Calm   1.6 km/h 86% 0.0 mm 0 W/m2
20:43 9.4 °C 7.2 °C 1011.9 hPa Calm     86% 0.0 mm 0 W/m2
20:48 9.3 °C 7.1 °C 1011.9 hPa Calm   1.6 km/h 86% 0.0 mm 0 W/m2
20:53 9.3 °C 7.1 °C 1012.2 hPa Calm   1.6 km/h 86% 0.0 mm 0 W/m2
20:58 9.3 °C 7.1 °C 1011.9 hPa Calm     86% 0.0 mm 0 W/m2
21:03 9.2 °C 7 °C 1012.2 hPa Calm   1.6 km/h 86% 0.0 mm 0 W/m2
21:08 9.1 °C 6.9 °C 1012.2 hPa Calm   1.6 km/h 86% 0.0 mm 0 W/m2
21:13 9 °C 6.8 °C 1012.2 hPa Calm   1.6 km/h 86% 0.0 mm 0 W/m2
21:18 9 °C 6.8 °C 1012.2 hPa Calm     86% 0.0 mm 0 W/m2
21:23 8.9 °C 6.7 °C 1011.9 hPa Calm   1.6 km/h 86% 0.0 mm 0 W/m2
21:28 8.8 °C 6.8 °C 1011.9 hPa WNW 3.2 km/h 3.2 km/h 87% 0.0 mm 0 W/m2
21:33 8.9 °C 6.7 °C 1011.9 hPa Calm   1.6 km/h 86% 0.0 mm 0 W/m2
21:39 8.9 °C 6.7 °C 1011.9 hPa Calm     86% 0.0 mm 0 W/m2
21:44 8.8 °C 6.6 °C 1011.9 hPa Calm     86% 0.0 mm 0 W/m2
21:49 8.7 °C 6.7 °C 1011.9 hPa Calm   3.2 km/h 87% 0.0 mm 0 W/m2
21:54 8.6 °C 6.6 °C 1012.2 hPa Calm     87% 0.0 mm 0 W/m2
21:59 8.5 °C 6.5 °C 1012.2 hPa Calm   1.6 km/h 87% 0.0 mm 0 W/m2
22:04 8.4 °C 6.4 °C 1012.2 hPa Calm   1.6 km/h 87% 0.0 mm 0 W/m2
22:09 8.3 °C 6.4 °C 1012.2 hPa WSW 1.4 km/h 1.6 km/h 88% 0.0 mm 0 W/m2
22:14 8.4 °C 6.5 °C 1012.2 hPa Calm   3.2 km/h 88% 0.0 mm 0 W/m2
22:19 8.4 °C 6.5 °C 1012.2 hPa Calm     88% 0.0 mm 0 W/m2
22:24 8.3 °C 6.4 °C 1011.9 hPa Calm   3.2 km/h 88% 0.0 mm 0 W/m2
22:29 8.3 °C 6.4 °C 1012.2 hPa West 1.4 km/h 1.6 km/h 88% 0.0 mm 0 W/m2
22:34 8.2 °C 6.5 °C 1012.2 hPa Calm   3.2 km/h 89% 0.0 mm 0 W/m2
22:39 8.3 °C 6.6 °C 1012.2 hPa Calm   1.6 km/h 89% 0.0 mm 0 W/m2
22:44 8.3 °C 6.4 °C 1012.2 hPa Calm   1.6 km/h 88% 0.0 mm 0 W/m2
22:49 8.3 °C 6.4 °C 1011.9 hPa NNW 1.4 km/h 3.2 km/h 88% 0.0 mm 0 W/m2
22:54 8.2 °C 6.3 °C 1012.2 hPa Calm   3.2 km/h 88% 0.0 mm 0 W/m2
22:59 8.2 °C 6.5 °C 1011.9 hPa Calm     89% 0.0 mm 0 W/m2
23:04 8.2 °C 6.5 °C 1011.9 hPa Calm     89% 0.0 mm 0 W/m2
23:09 8.1 °C 6.4 °C 1011.9 hPa Calm   1.6 km/h 89% 0.0 mm 0 W/m2
23:14 8.1 °C 6.4 °C 1011.5 hPa Calm   1.6 km/h 89% 0.0 mm 0 W/m2
23:19 8.2 °C 6.5 °C 1011.5 hPa Calm   1.6 km/h 89% 0.0 mm 0 W/m2
23:24 8.2 °C 6.5 °C 1011.5 hPa Calm     89% 0.0 mm 0 W/m2
23:29 8.1 °C 6.4 °C 1011.5 hPa SW 1.4 km/h 1.6 km/h 89% 0.0 mm 0 W/m2
23:34 8.1 °C 6.4 °C 1011.5 hPa Calm   1.6 km/h 89% 0.0 mm 0 W/m2
23:39 8.1 °C 6.6 °C 1011.2 hPa Calm     90% 0.0 mm 0 W/m2
23:44 8.1 °C 6.6 °C 1011.5 hPa Calm     90% 0.0 mm 0 W/m2
23:49 8.1 °C 6.6 °C 1011.2 hPa Calm     90% 0.0 mm 0 W/m2
23:54 8.1 °C 6.6 °C 1011.5 hPa Calm   1.6 km/h 90% 0.0 mm 0 W/m2
23:59 8.2 °C 6.7 °C 1011.5 hPa Calm     90% 0.0 mm 0 W/m2
Juneau County Weather
Compliments of Weather Underground - 4 mb